Mylo, North Dakota
Current Conditions -  °F | °C
As of 10:15 PM on Thursday 20 Nov 2014 (Local Time) from K06D Reporting Station
Scattered Clouds Scattered Clouds  
Wind Chill: -8°   Ceiling: Unl
Heat Index: 10°   Visibility: 10mi
Dew Point:   Wind: 20mph
Humidity: 85%   Direction: 200°SSW
Pressure: 29.85"   Gusts: 25mph
Location:  48.64°N, 99.62°W
Report Text: K06D 210415Z AUTO 20017G22KT 10SM SCT120 M12/M14 A2985 RMK AO2
Loading
Personal Weather Stations






























Interactive Weather Map New forecast layout! Learn more

10-Day Weather Forecast

Advertisements
Track Severe Weather on mobile